sensor_id;sensor_type;location;lat;lon;timestamp;P1;durP1;ratioP1;P2;durP2;ratioP2
8652;SDS011;4364;52.426;9.424;2023-02-28T00:01:21;13.00;;;7.67;;
8652;SDS011;4364;52.426;9.424;2023-02-28T00:03:48;11.60;;;6.93;;
8652;SDS011;4364;52.426;9.424;2023-02-28T00:06:14;13.87;;;8.33;;
8652;SDS011;4364;52.426;9.424;2023-02-28T00:08:41;12.97;;;7.63;;
8652;SDS011;4364;52.426;9.424;2023-02-28T00:11:09;12.70;;;7.97;;
8652;SDS011;4364;52.426;9.424;2023-02-28T00:13:39;10.63;;;7.10;;
8652;SDS011;4364;52.426;9.424;2023-02-28T00:16:13;11.93;;;7.40;;
8652;SDS011;4364;52.426;9.424;2023-02-28T00:18:42;11.50;;;6.83;;
8652;SDS011;4364;52.426;9.424;2023-02-28T00:21:09;13.00;;;7.57;;
8652;SDS011;4364;52.426;9.424;2023-02-28T00:23:35;12.50;;;7.13;;
8652;SDS011;4364;52.426;9.424;2023-02-28T00:26:02;12.63;;;7.70;;
8652;SDS011;4364;52.426;9.424;2023-02-28T00:28:29;12.37;;;7.13;;
8652;SDS011;4364;52.426;9.424;2023-02-28T00:30:58;10.67;;;7.03;;
8652;SDS011;4364;52.426;9.424;2023-02-28T00:33:27;11.77;;;7.57;;
8652;SDS011;4364;52.426;9.424;2023-02-28T00:36:04;11.27;;;7.13;;
8652;SDS011;4364;52.426;9.424;2023-02-28T00:38:34;10.73;;;7.33;;
8652;SDS011;4364;52.426;9.424;2023-02-28T00:41:01;10.23;;;7.23;;
8652;SDS011;4364;52.426;9.424;2023-02-28T00:43:32;11.47;;;6.97;;
8652;SDS011;4364;52.426;9.424;2023-02-28T00:46:00;11.80;;;7.00;;
8652;SDS011;4364;52.426;9.424;2023-02-28T00:48:27;12.30;;;7.63;;
8652;SDS011;4364;52.426;9.424;2023-02-28T00:50:53;12.13;;;7.17;;
8652;SDS011;4364;52.426;9.424;2023-02-28T00:53:20;12.80;;;7.30;;
8652;SDS011;4364;52.426;9.424;2023-02-28T00:55:46;11.90;;;7.50;;
8652;SDS011;4364;52.426;9.424;2023-02-28T00:58:13;12.07;;;7.30;;
8652;SDS011;4364;52.426;9.424;2023-02-28T01:00:39;10.77;;;7.10;;
8652;SDS011;4364;52.426;9.424;2023-02-28T01:03:06;12.53;;;7.07;;
8652;SDS011;4364;52.426;9.424;2023-02-28T01:05:32;11.07;;;7.37;;
8652;SDS011;4364;52.426;9.424;2023-02-28T01:07:59;10.97;;;7.07;;
8652;SDS011;4364;52.426;9.424;2023-02-28T01:10:27;11.13;;;6.93;;
8652;SDS011;4364;52.426;9.424;2023-02-28T01:12:57;16.47;;;7.03;;
8652;SDS011;4364;52.426;9.424;2023-02-28T01:15:24;11.17;;;7.30;;
8652;SDS011;4364;52.426;9.424;2023-02-28T01:17:50;10.23;;;6.80;;
8652;SDS011;4364;52.426;9.424;2023-02-28T01:20:17;13.37;;;7.53;;
8652;SDS011;4364;52.426;9.424;2023-02-28T01:22:43;11.10;;;6.93;;
8652;SDS011;4364;52.426;9.424;2023-02-28T01:25:10;12.23;;;6.83;;
8652;SDS011;4364;52.426;9.424;2023-02-28T01:27:36;10.50;;;6.80;;
8652;SDS011;4364;52.426;9.424;2023-02-28T01:30:06;10.33;;;6.70;;
8652;SDS011;4364;52.426;9.424;2023-02-28T01:32:34;9.43;;;6.47;;
8652;SDS011;4364;52.426;9.424;2023-02-28T01:35:02;10.63;;;6.83;;
8652;SDS011;4364;52.426;9.424;2023-02-28T01:37:28;10.53;;;6.97;;
8652;SDS011;4364;52.426;9.424;2023-02-28T01:39:56;11.87;;;7.37;;
8652;SDS011;4364;52.426;9.424;2023-02-28T01:42:23;11.00;;;7.63;;
8652;SDS011;4364;52.426;9.424;2023-02-28T01:47:57;11.47;;;7.47;;
8652;SDS011;4364;52.426;9.424;2023-02-28T01:50:27;11.67;;;7.70;;
8652;SDS011;4364;52.426;9.424;2023-02-28T01:52:58;10.50;;;7.00;;
8652;SDS011;4364;52.426;9.424;2023-02-28T01:55:30;11.53;;;7.60;;
8652;SDS011;4364;52.426;9.424;2023-02-28T01:57:58;12.83;;;7.37;;
8652;SDS011;4364;52.426;9.424;2023-02-28T02:00:29;13.60;;;7.47;;
8652;SDS011;4364;52.426;9.424;2023-02-28T02:02:59;13.80;;;7.50;;
8652;SDS011;4364;52.426;9.424;2023-02-28T02:05:31;12.57;;;7.10;;
8652;SDS011;4364;52.426;9.424;2023-02-28T02:08:01;10.90;;;6.50;;
8652;SDS011;4364;52.426;9.424;2023-02-28T02:10:32;11.37;;;6.20;;
8652;SDS011;4364;52.426;9.424;2023-02-28T02:16:03;11.87;;;7.47;;
8652;SDS011;4364;52.426;9.424;2023-02-28T02:18:43;9.57;;;5.90;;
8652;SDS011;4364;52.426;9.424;2023-02-28T02:27:16;10.20;;;6.20;;
8652;SDS011;4364;52.426;9.424;2023-02-28T02:35:43;12.63;;;6.13;;
8652;SDS011;4364;52.426;9.424;2023-02-28T02:38:29;11.47;;;6.73;;
8652;SDS011;4364;52.426;9.424;2023-02-28T02:41:08;12.43;;;7.27;;
8652;SDS011;4364;52.426;9.424;2023-02-28T02:46:19;10.40;;;6.40;;
8652;SDS011;4364;52.426;9.424;2023-02-28T02:48:50;11.00;;;6.37;;
8652;SDS011;4364;52.426;9.424;2023-02-28T02:51:21;12.30;;;6.90;;
8652;SDS011;4364;52.426;9.424;2023-02-28T02:53:52;10.83;;;6.60;;
8652;SDS011;4364;52.426;9.424;2023-02-28T02:56:28;9.93;;;6.07;;
8652;SDS011;4364;52.426;9.424;2023-02-28T02:59:01;13.73;;;6.80;;
8652;SDS011;4364;52.426;9.424;2023-02-28T03:01:31;10.60;;;6.17;;
8652;SDS011;4364;52.426;9.424;2023-02-28T03:04:03;8.50;;;5.67;;
8652;SDS011;4364;52.426;9.424;2023-02-28T03:06:34;10.77;;;6.60;;
8652;SDS011;4364;52.426;9.424;2023-02-28T03:09:01;9.47;;;6.27;;
8652;SDS011;4364;52.426;9.424;2023-02-28T03:11:28;9.63;;;6.40;;
8652;SDS011;4364;52.426;9.424;2023-02-28T03:17:21;9.63;;;6.20;;
8652;SDS011;4364;52.426;9.424;2023-02-28T03:25:09;8.77;;;6.10;;
8652;SDS011;4364;52.426;9.424;2023-02-28T03:28:05;10.30;;;6.20;;
8652;SDS011;4364;52.426;9.424;2023-02-28T03:30:50;10.30;;;6.37;;
8652;SDS011;4364;52.426;9.424;2023-02-28T03:33:24;10.70;;;6.17;;
8652;SDS011;4364;52.426;9.424;2023-02-28T03:36:03;11.33;;;6.60;;
8652;SDS011;4364;52.426;9.424;2023-02-28T03:38:36;9.70;;;6.40;;
8652;SDS011;4364;52.426;9.424;2023-02-28T03:41:12;11.30;;;6.60;;
8652;SDS011;4364;52.426;9.424;2023-02-28T03:43:43;10.77;;;6.57;;
8652;SDS011;4364;52.426;9.424;2023-02-28T03:46:16;10.33;;;6.17;;
8652;SDS011;4364;52.426;9.424;2023-02-28T03:48:53;12.23;;;7.20;;
8652;SDS011;4364;52.426;9.424;2023-02-28T03:51:26;12.37;;;6.60;;
8652;SDS011;4364;52.426;9.424;2023-02-28T03:54:04;12.97;;;6.90;;
8652;SDS011;4364;52.426;9.424;2023-02-28T03:56:59;11.43;;;7.00;;
8652;SDS011;4364;52.426;9.424;2023-02-28T03:59:30;9.00;;;6.07;;
8652;SDS011;4364;52.426;9.424;2023-02-28T04:02:02;10.80;;;6.67;;
8652;SDS011;4364;52.426;9.424;2023-02-28T04:04:29;13.20;;;6.63;;
8652;SDS011;4364;52.426;9.424;2023-02-28T04:07:08;12.27;;;7.80;;
8652;SDS011;4364;52.426;9.424;2023-02-28T04:09:37;10.97;;;7.10;;
8652;SDS011;4364;52.426;9.424;2023-02-28T04:12:04;9.97;;;6.93;;
8652;SDS011;4364;52.426;9.424;2023-02-28T04:14:31;11.80;;;6.90;;
8652;SDS011;4364;52.426;9.424;2023-02-28T04:16:57;9.80;;;6.40;;
8652;SDS011;4364;52.426;9.424;2023-02-28T04:19:24;10.97;;;6.73;;
8652;SDS011;4364;52.426;9.424;2023-02-28T04:21:51;9.93;;;6.70;;
8652;SDS011;4364;52.426;9.424;2023-02-28T04:24:23;9.83;;;6.90;;
8652;SDS011;4364;52.426;9.424;2023-02-28T04:26:52;11.10;;;7.20;;
8652;SDS011;4364;52.426;9.424;2023-02-28T04:29:21;9.73;;;6.43;;
8652;SDS011;4364;52.426;9.424;2023-02-28T04:31:49;9.90;;;6.57;;
8652;SDS011;4364;52.426;9.424;2023-02-28T04:34:16;8.83;;;6.67;;
8652;SDS011;4364;52.426;9.424;2023-02-28T04:36:45;10.13;;;6.77;;
8652;SDS011;4364;52.426;9.424;2023-02-28T04:39:12;7.87;;;6.73;;
8652;SDS011;4364;52.426;9.424;2023-02-28T04:41:38;13.77;;;7.40;;
8652;SDS011;4364;52.426;9.424;2023-02-28T04:44:05;8.67;;;6.33;;
8652;SDS011;4364;52.426;9.424;2023-02-28T04:46:31;9.87;;;6.87;;
8652;SDS011;4364;52.426;9.424;2023-02-28T04:48:58;10.63;;;6.80;;
8652;SDS011;4364;52.426;9.424;2023-02-28T04:51:25;11.00;;;7.30;;
8652;SDS011;4364;52.426;9.424;2023-02-28T04:53:52;8.90;;;6.63;;
8652;SDS011;4364;52.426;9.424;2023-02-28T04:56:19;10.03;;;6.40;;
8652;SDS011;4364;52.426;9.424;2023-02-28T04:58:46;12.23;;;6.70;;
8652;SDS011;4364;52.426;9.424;2023-02-28T05:01:18;10.97;;;6.93;;
8652;SDS011;4364;52.426;9.424;2023-02-28T05:03:47;9.03;;;6.97;;
8652;SDS011;4364;52.426;9.424;2023-02-28T05:06:14;10.47;;;6.60;;
8652;SDS011;4364;52.426;9.424;2023-02-28T05:08:41;10.80;;;7.13;;
8652;SDS011;4364;52.426;9.424;2023-02-28T05:11:30;12.50;;;6.90;;
8652;SDS011;4364;52.426;9.424;2023-02-28T05:14:02;10.70;;;6.70;;
8652;SDS011;4364;52.426;9.424;2023-02-28T05:16:30;11.53;;;7.20;;
8652;SDS011;4364;52.426;9.424;2023-02-28T05:18:57;11.67;;;6.87;;
8652;SDS011;4364;52.426;9.424;2023-02-28T05:21:34;12.33;;;7.57;;
8652;SDS011;4364;52.426;9.424;2023-02-28T05:24:03;11.20;;;7.37;;
8652;SDS011;4364;52.426;9.424;2023-02-28T05:26:33;9.57;;;7.13;;
8652;SDS011;4364;52.426;9.424;2023-02-28T05:29:01;12.23;;;7.53;;
8652;SDS011;4364;52.426;9.424;2023-02-28T05:31:28;11.97;;;6.73;;
8652;SDS011;4364;52.426;9.424;2023-02-28T05:33:54;10.57;;;7.10;;
8652;SDS011;4364;52.426;9.424;2023-02-28T05:36:21;9.60;;;6.73;;
8652;SDS011;4364;52.426;9.424;2023-02-28T05:38:49;12.07;;;7.60;;
8652;SDS011;4364;52.426;9.424;2023-02-28T05:41:16;10.70;;;7.87;;
8652;SDS011;4364;52.426;9.424;2023-02-28T05:43:45;15.70;;;7.90;;
8652;SDS011;4364;52.426;9.424;2023-02-28T05:46:12;13.63;;;7.80;;
8652;SDS011;4364;52.426;9.424;2023-02-28T05:48:41;10.37;;;7.20;;
8652;SDS011;4364;52.426;9.424;2023-02-28T05:51:08;12.93;;;8.20;;
8652;SDS011;4364;52.426;9.424;2023-02-28T05:53:35;10.60;;;6.90;;
8652;SDS011;4364;52.426;9.424;2023-02-28T05:56:02;10.70;;;7.13;;
8652;SDS011;4364;52.426;9.424;2023-02-28T05:58:29;14.60;;;6.83;;
8652;SDS011;4364;52.426;9.424;2023-02-28T06:00:57;12.77;;;7.17;;
8652;SDS011;4364;52.426;9.424;2023-02-28T06:03:24;10.27;;;6.87;;
8652;SDS011;4364;52.426;9.424;2023-02-28T06:05:51;10.33;;;7.30;;
8652;SDS011;4364;52.426;9.424;2023-02-28T06:08:17;15.83;;;9.20;;
8652;SDS011;4364;52.426;9.424;2023-02-28T06:10:44;11.93;;;8.83;;
8652;SDS011;4364;52.426;9.424;2023-02-28T06:13:11;12.67;;;8.17;;
8652;SDS011;4364;52.426;9.424;2023-02-28T06:15:39;12.37;;;6.97;;
8652;SDS011;4364;52.426;9.424;2023-02-28T06:18:05;11.43;;;6.63;;
8652;SDS011;4364;52.426;9.424;2023-02-28T06:20:32;11.60;;;6.57;;
8652;SDS011;4364;52.426;9.424;2023-02-28T06:22:59;11.57;;;7.20;;
8652;SDS011;4364;52.426;9.424;2023-02-28T06:25:27;10.10;;;6.63;;
8652;SDS011;4364;52.426;9.424;2023-02-28T06:27:54;11.27;;;6.60;;
8652;SDS011;4364;52.426;9.424;2023-02-28T06:30:21;12.37;;;7.73;;
8652;SDS011;4364;52.426;9.424;2023-02-28T06:32:51;12.70;;;8.47;;
8652;SDS011;4364;52.426;9.424;2023-02-28T06:35:18;16.77;;;12.13;;
8652;SDS011;4364;52.426;9.424;2023-02-28T06:37:44;18.47;;;12.30;;
8652;SDS011;4364;52.426;9.424;2023-02-28T06:40:11;18.17;;;11.63;;
8652;SDS011;4364;52.426;9.424;2023-02-28T06:42:39;15.47;;;10.93;;
8652;SDS011;4364;52.426;9.424;2023-02-28T06:45:05;16.17;;;10.67;;
8652;SDS011;4364;52.426;9.424;2023-02-28T06:47:36;18.73;;;9.00;;
8652;SDS011;4364;52.426;9.424;2023-02-28T06:50:04;15.40;;;8.70;;
8652;SDS011;4364;52.426;9.424;2023-02-28T06:52:32;16.30;;;9.50;;
8652;SDS011;4364;52.426;9.424;2023-02-28T06:54:59;15.63;;;9.63;;
8652;SDS011;4364;52.426;9.424;2023-02-28T06:57:29;15.03;;;9.30;;
8652;SDS011;4364;52.426;9.424;2023-02-28T07:00:00;17.17;;;9.37;;
8652;SDS011;4364;52.426;9.424;2023-02-28T07:02:29;17.07;;;9.67;;
8652;SDS011;4364;52.426;9.424;2023-02-28T07:04:55;15.03;;;8.53;;
8652;SDS011;4364;52.426;9.424;2023-02-28T07:07:22;13.07;;;9.07;;
8652;SDS011;4364;52.426;9.424;2023-02-28T07:09:48;14.57;;;8.83;;
8652;SDS011;4364;52.426;9.424;2023-02-28T07:12:15;15.30;;;9.20;;
8652;SDS011;4364;52.426;9.424;2023-02-28T07:14:42;14.47;;;9.13;;
8652;SDS011;4364;52.426;9.424;2023-02-28T07:17:09;16.63;;;8.90;;
8652;SDS011;4364;52.426;9.424;2023-02-28T07:19:38;14.00;;;8.67;;
8652;SDS011;4364;52.426;9.424;2023-02-28T07:22:05;13.53;;;8.80;;
8652;SDS011;4364;52.426;9.424;2023-02-28T07:24:33;15.57;;;10.03;;
8652;SDS011;4364;52.426;9.424;2023-02-28T07:27:00;15.77;;;9.50;;
8652;SDS011;4364;52.426;9.424;2023-02-28T07:29:27;17.23;;;10.10;;
8652;SDS011;4364;52.426;9.424;2023-02-28T07:31:54;16.07;;;9.40;;
8652;SDS011;4364;52.426;9.424;2023-02-28T07:34:20;14.40;;;9.23;;
8652;SDS011;4364;52.426;9.424;2023-02-28T07:36:48;12.63;;;9.00;;
8652;SDS011;4364;52.426;9.424;2023-02-28T07:39:14;14.23;;;8.70;;
8652;SDS011;4364;52.426;9.424;2023-02-28T07:41:41;14.57;;;8.87;;
8652;SDS011;4364;52.426;9.424;2023-02-28T07:44:10;13.73;;;9.33;;
8652;SDS011;4364;52.426;9.424;2023-02-28T07:46:37;17.47;;;10.60;;
8652;SDS011;4364;52.426;9.424;2023-02-28T07:49:04;18.53;;;9.77;;
8652;SDS011;4364;52.426;9.424;2023-02-28T07:51:31;14.57;;;9.17;;
8652;SDS011;4364;52.426;9.424;2023-02-28T07:53:58;13.63;;;9.63;;
8652;SDS011;4364;52.426;9.424;2023-02-28T07:56:25;15.00;;;9.70;;
8652;SDS011;4364;52.426;9.424;2023-02-28T07:58:51;15.27;;;9.67;;
8652;SDS011;4364;52.426;9.424;2023-02-28T08:01:17;16.50;;;10.80;;
8652;SDS011;4364;52.426;9.424;2023-02-28T08:03:45;14.37;;;9.90;;
8652;SDS011;4364;52.426;9.424;2023-02-28T08:06:18;19.83;;;10.30;;
8652;SDS011;4364;52.426;9.424;2023-02-28T08:08:46;16.37;;;10.07;;
8652;SDS011;4364;52.426;9.424;2023-02-28T08:11:13;18.43;;;10.57;;
8652;SDS011;4364;52.426;9.424;2023-02-28T08:13:40;15.40;;;10.90;;
8652;SDS011;4364;52.426;9.424;2023-02-28T08:16:08;15.77;;;9.73;;
8652;SDS011;4364;52.426;9.424;2023-02-28T08:18:34;16.07;;;10.57;;
8652;SDS011;4364;52.426;9.424;2023-02-28T08:21:08;14.93;;;9.70;;
8652;SDS011;4364;52.426;9.424;2023-02-28T08:23:35;16.40;;;9.83;;
8652;SDS011;4364;52.426;9.424;2023-02-28T08:26:03;15.67;;;10.17;;
8652;SDS011;4364;52.426;9.424;2023-02-28T08:28:30;13.37;;;8.60;;
8652;SDS011;4364;52.426;9.424;2023-02-28T08:30:57;14.87;;;8.47;;
8652;SDS011;4364;52.426;9.424;2023-02-28T08:33:24;15.90;;;8.67;;
8652;SDS011;4364;52.426;9.424;2023-02-28T08:35:52;17.23;;;9.03;;
8652;SDS011;4364;52.426;9.424;2023-02-28T08:38:23;14.97;;;7.70;;
8652;SDS011;4364;52.426;9.424;2023-02-28T08:40:50;12.60;;;6.97;;
8652;SDS011;4364;52.426;9.424;2023-02-28T08:43:23;12.90;;;7.00;;
8652;SDS011;4364;52.426;9.424;2023-02-28T08:45:53;13.03;;;7.40;;
8652;SDS011;4364;52.426;9.424;2023-02-28T08:48:23;10.40;;;6.90;;
8652;SDS011;4364;52.426;9.424;2023-02-28T08:50:57;9.97;;;6.20;;
8652;SDS011;4364;52.426;9.424;2023-02-28T08:53:32;12.73;;;6.70;;
8652;SDS011;4364;52.426;9.424;2023-02-28T08:56:00;9.77;;;6.17;;
8652;SDS011;4364;52.426;9.424;2023-02-28T08:58:29;10.43;;;6.63;;
8652;SDS011;4364;52.426;9.424;2023-02-28T09:00:55;8.07;;;5.87;;
8652;SDS011;4364;52.426;9.424;2023-02-28T09:03:22;10.23;;;6.00;;
8652;SDS011;4364;52.426;9.424;2023-02-28T09:05:57;10.07;;;6.00;;
8652;SDS011;4364;52.426;9.424;2023-02-28T09:08:28;13.37;;;6.37;;
8652;SDS011;4364;52.426;9.424;2023-02-28T09:10:56;11.17;;;6.13;;
8652;SDS011;4364;52.426;9.424;2023-02-28T09:13:27;11.27;;;6.80;;
8652;SDS011;4364;52.426;9.424;2023-02-28T09:15:54;11.80;;;6.67;;
8652;SDS011;4364;52.426;9.424;2023-02-28T09:18:23;11.67;;;6.00;;
8652;SDS011;4364;52.426;9.424;2023-02-28T09:20:50;10.67;;;6.20;;
8652;SDS011;4364;52.426;9.424;2023-02-28T09:23:16;9.40;;;6.00;;
8652;SDS011;4364;52.426;9.424;2023-02-28T09:25:47;8.83;;;5.67;;
8652;SDS011;4364;52.426;9.424;2023-02-28T09:28:15;7.73;;;5.40;;
8652;SDS011;4364;52.426;9.424;2023-02-28T09:30:46;8.80;;;5.50;;
8652;SDS011;4364;52.426;9.424;2023-02-28T09:33:14;9.43;;;5.77;;
8652;SDS011;4364;52.426;9.424;2023-02-28T09:35:42;7.37;;;5.70;;
8652;SDS011;4364;52.426;9.424;2023-02-28T09:38:09;9.20;;;5.17;;
8652;SDS011;4364;52.426;9.424;2023-02-28T09:40:37;7.57;;;5.47;;
8652;SDS011;4364;52.426;9.424;2023-02-28T09:43:12;7.83;;;5.00;;
8652;SDS011;4364;52.426;9.424;2023-02-28T09:45:42;7.13;;;4.83;;
8652;SDS011;4364;52.426;9.424;2023-02-28T09:48:16;8.47;;;5.33;;
8652;SDS011;4364;52.426;9.424;2023-02-28T09:50:48;8.57;;;5.33;;
8652;SDS011;4364;52.426;9.424;2023-02-28T09:53:33;8.53;;;4.93;;
8652;SDS011;4364;52.426;9.424;2023-02-28T09:56:09;7.60;;;4.27;;
8652;SDS011;4364;52.426;9.424;2023-02-28T09:58:41;5.73;;;4.20;;
8652;SDS011;4364;52.426;9.424;2023-02-28T10:01:18;7.17;;;4.40;;
8652;SDS011;4364;52.426;9.424;2023-02-28T10:03:55;7.33;;;4.33;;
8652;SDS011;4364;52.426;9.424;2023-02-28T10:06:28;7.27;;;3.90;;
8652;SDS011;4364;52.426;9.424;2023-02-28T10:09:14;6.70;;;4.20;;
8652;SDS011;4364;52.426;9.424;2023-02-28T10:11:48;9.10;;;3.80;;
8652;SDS011;4364;52.426;9.424;2023-02-28T10:14:24;5.87;;;4.33;;
8652;SDS011;4364;52.426;9.424;2023-02-28T10:17:14;6.80;;;3.83;;
8652;SDS011;4364;52.426;9.424;2023-02-28T10:22:17;5.13;;;3.70;;
8652;SDS011;4364;52.426;9.424;2023-02-28T10:24:53;6.60;;;3.47;;
8652;SDS011;4364;52.426;9.424;2023-02-28T10:27:23;5.07;;;3.60;;
8652;SDS011;4364;52.426;9.424;2023-02-28T10:29:53;5.97;;;3.57;;
8652;SDS011;4364;52.426;9.424;2023-02-28T10:32:29;4.77;;;3.13;;
8652;SDS011;4364;52.426;9.424;2023-02-28T10:37:40;6.00;;;3.33;;
8652;SDS011;4364;52.426;9.424;2023-02-28T10:40:31;4.57;;;3.27;;
8652;SDS011;4364;52.426;9.424;2023-02-28T10:43:02;4.50;;;2.80;;
8652;SDS011;4364;52.426;9.424;2023-02-28T10:45:32;5.27;;;2.43;;
8652;SDS011;4364;52.426;9.424;2023-02-28T10:48:02;4.13;;;2.60;;
8652;SDS011;4364;52.426;9.424;2023-02-28T10:56:31;2.60;;;2.27;;
8652;SDS011;4364;52.426;9.424;2023-02-28T11:01:44;2.63;;;2.20;;
8652;SDS011;4364;52.426;9.424;2023-02-28T11:06:59;2.73;;;2.00;;
8652;SDS011;4364;52.426;9.424;2023-02-28T11:09:34;2.83;;;2.17;;
8652;SDS011;4364;52.426;9.424;2023-02-28T11:12:10;4.37;;;2.37;;
8652;SDS011;4364;52.426;9.424;2023-02-28T11:14:49;4.33;;;2.63;;
8652;SDS011;4364;52.426;9.424;2023-02-28T11:17:43;3.10;;;2.30;;
8652;SDS011;4364;52.426;9.424;2023-02-28T11:20:14;3.27;;;2.20;;
8652;SDS011;4364;52.426;9.424;2023-02-28T11:22:48;3.73;;;2.30;;
8652;SDS011;4364;52.426;9.424;2023-02-28T11:27:59;3.70;;;1.60;;
8652;SDS011;4364;52.426;9.424;2023-02-28T11:30:30;2.80;;;1.70;;
8652;SDS011;4364;52.426;9.424;2023-02-28T11:33:00;2.17;;;1.70;;
8652;SDS011;4364;52.426;9.424;2023-02-28T11:35:45;2.73;;;1.80;;
8652;SDS011;4364;52.426;9.424;2023-02-28T11:38:14;2.40;;;1.70;;
8652;SDS011;4364;52.426;9.424;2023-02-28T11:49:32;3.13;;;2.07;;
8652;SDS011;4364;52.426;9.424;2023-02-28T11:57:49;2.43;;;1.80;;
8652;SDS011;4364;52.426;9.424;2023-02-28T12:03:11;4.57;;;2.03;;
8652;SDS011;4364;52.426;9.424;2023-02-28T12:05:46;3.67;;;2.03;;
8652;SDS011;4364;52.426;9.424;2023-02-28T12:08:44;2.20;;;1.50;;
8652;SDS011;4364;52.426;9.424;2023-02-28T12:22:32;2.23;;;2.03;;
8652;SDS011;4364;52.426;9.424;2023-02-28T12:25:28;3.73;;;1.80;;
8652;SDS011;4364;52.426;9.424;2023-02-28T12:28:10;6.77;;;1.90;;
8652;SDS011;4364;52.426;9.424;2023-02-28T12:30:42;2.60;;;1.70;;
8652;SDS011;4364;52.426;9.424;2023-02-28T12:33:30;3.00;;;1.60;;
8652;SDS011;4364;52.426;9.424;2023-02-28T12:36:03;2.80;;;1.60;;
8652;SDS011;4364;52.426;9.424;2023-02-28T12:38:38;4.53;;;1.70;;
8652;SDS011;4364;52.426;9.424;2023-02-28T12:41:12;2.43;;;1.70;;
8652;SDS011;4364;52.426;9.424;2023-02-28T12:43:46;3.53;;;2.20;;
8652;SDS011;4364;52.426;9.424;2023-02-28T12:46:34;2.77;;;1.50;;
8652;SDS011;4364;52.426;9.424;2023-02-28T12:49:10;6.77;;;2.00;;
8652;SDS011;4364;52.426;9.424;2023-02-28T12:51:57;3.13;;;1.90;;
8652;SDS011;4364;52.426;9.424;2023-02-28T12:54:31;3.50;;;1.80;;
8652;SDS011;4364;52.426;9.424;2023-02-28T12:59:48;2.33;;;1.60;;
8652;SDS011;4364;52.426;9.424;2023-02-28T13:07:56;3.13;;;1.80;;
8652;SDS011;4364;52.426;9.424;2023-02-28T13:10:45;3.53;;;1.70;;
8652;SDS011;4364;52.426;9.424;2023-02-28T13:13:17;4.40;;;2.03;;
8652;SDS011;4364;52.426;9.424;2023-02-28T13:16:02;2.43;;;1.80;;
8652;SDS011;4364;52.426;9.424;2023-02-28T13:20:58;3.67;;;1.90;;
8652;SDS011;4364;52.426;9.424;2023-02-28T13:23:41;4.60;;;1.93;;
8652;SDS011;4364;52.426;9.424;2023-02-28T13:26:22;3.53;;;1.70;;
8652;SDS011;4364;52.426;9.424;2023-02-28T13:31:21;3.43;;;1.90;;
8652;SDS011;4364;52.426;9.424;2023-02-28T13:38:45;3.80;;;2.17;;
8652;SDS011;4364;52.426;9.424;2023-02-28T13:46:27;4.83;;;2.00;;
8652;SDS011;4364;52.426;9.424;2023-02-28T13:48:53;4.33;;;2.00;;
8652;SDS011;4364;52.426;9.424;2023-02-28T13:51:35;4.67;;;2.00;;
8652;SDS011;4364;52.426;9.424;2023-02-28T13:54:16;4.00;;;2.20;;
8652;SDS011;4364;52.426;9.424;2023-02-28T13:59:58;3.07;;;2.30;;
8652;SDS011;4364;52.426;9.424;2023-02-28T14:05:29;4.33;;;2.23;;
8652;SDS011;4364;52.426;9.424;2023-02-28T14:07:59;3.60;;;2.20;;
8652;SDS011;4364;52.426;9.424;2023-02-28T14:10:36;4.83;;;2.50;;
8652;SDS011;4364;52.426;9.424;2023-02-28T14:13:13;3.87;;;2.47;;
8652;SDS011;4364;52.426;9.424;2023-02-28T14:16:02;3.53;;;2.23;;
8652;SDS011;4364;52.426;9.424;2023-02-28T14:18:33;2.57;;;2.10;;
8652;SDS011;4364;52.426;9.424;2023-02-28T14:21:19;4.17;;;2.00;;
8652;SDS011;4364;52.426;9.424;2023-02-28T14:38:25;3.20;;;2.10;;
8652;SDS011;4364;52.426;9.424;2023-02-28T14:40:56;3.97;;;2.37;;
8652;SDS011;4364;52.426;9.424;2023-02-28T14:43:27;3.40;;;2.20;;
8652;SDS011;4364;52.426;9.424;2023-02-28T14:46:04;2.97;;;1.90;;
8652;SDS011;4364;52.426;9.424;2023-02-28T14:48:32;3.90;;;2.27;;
8652;SDS011;4364;52.426;9.424;2023-02-28T14:51:00;2.90;;;2.40;;
8652;SDS011;4364;52.426;9.424;2023-02-28T14:53:28;2.90;;;2.20;;
8652;SDS011;4364;52.426;9.424;2023-02-28T14:55:56;3.80;;;2.67;;
8652;SDS011;4364;52.426;9.424;2023-02-28T14:58:29;4.80;;;2.40;;
8652;SDS011;4364;52.426;9.424;2023-02-28T15:00:59;3.07;;;2.40;;
8652;SDS011;4364;52.426;9.424;2023-02-28T15:05:54;2.27;;;1.97;;
8652;SDS011;4364;52.426;9.424;2023-02-28T15:08:23;3.10;;;2.27;;
8652;SDS011;4364;52.426;9.424;2023-02-28T15:11:04;3.47;;;2.13;;
8652;SDS011;4364;52.426;9.424;2023-02-28T15:13:39;3.60;;;2.00;;
8652;SDS011;4364;52.426;9.424;2023-02-28T15:16:14;3.73;;;2.17;;
8652;SDS011;4364;52.426;9.424;2023-02-28T15:18:59;3.53;;;2.20;;
8652;SDS011;4364;52.426;9.424;2023-02-28T15:21:32;3.33;;;2.43;;
8652;SDS011;4364;52.426;9.424;2023-02-28T15:24:06;5.43;;;2.40;;
8652;SDS011;4364;52.426;9.424;2023-02-28T15:26:40;4.47;;;2.80;;
8652;SDS011;4364;52.426;9.424;2023-02-28T15:29:17;2.67;;;2.40;;
8652;SDS011;4364;52.426;9.424;2023-02-28T15:31:50;3.90;;;2.30;;
8652;SDS011;4364;52.426;9.424;2023-02-28T15:42:57;3.70;;;2.50;;
8652;SDS011;4364;52.426;9.424;2023-02-28T15:45:37;5.70;;;2.53;;
8652;SDS011;4364;52.426;9.424;2023-02-28T15:48:20;3.80;;;2.60;;
8652;SDS011;4364;52.426;9.424;2023-02-28T15:50:51;5.43;;;2.50;;
8652;SDS011;4364;52.426;9.424;2023-02-28T15:53:30;4.13;;;2.60;;
8652;SDS011;4364;52.426;9.424;2023-02-28T15:56:01;4.77;;;2.80;;
8652;SDS011;4364;52.426;9.424;2023-02-28T15:58:30;4.13;;;2.30;;
8652;SDS011;4364;52.426;9.424;2023-02-28T16:01:00;6.83;;;2.87;;
8652;SDS011;4364;52.426;9.424;2023-02-28T16:03:46;4.47;;;2.30;;
8652;SDS011;4364;52.426;9.424;2023-02-28T16:08:48;3.00;;;2.40;;
8652;SDS011;4364;52.426;9.424;2023-02-28T16:11:17;4.03;;;2.43;;
8652;SDS011;4364;52.426;9.424;2023-02-28T16:13:46;3.63;;;2.50;;
8652;SDS011;4364;52.426;9.424;2023-02-28T16:16:17;4.43;;;2.43;;
8652;SDS011;4364;52.426;9.424;2023-02-28T16:18:46;4.20;;;2.47;;
8652;SDS011;4364;52.426;9.424;2023-02-28T16:21:12;3.30;;;2.53;;
8652;SDS011;4364;52.426;9.424;2023-02-28T16:23:39;3.73;;;2.50;;
8652;SDS011;4364;52.426;9.424;2023-02-28T16:26:06;7.30;;;2.70;;
8652;SDS011;4364;52.426;9.424;2023-02-28T16:28:35;3.43;;;2.50;;
8652;SDS011;4364;52.426;9.424;2023-02-28T16:31:05;3.63;;;2.60;;
8652;SDS011;4364;52.426;9.424;2023-02-28T16:33:33;4.00;;;2.70;;
8652;SDS011;4364;52.426;9.424;2023-02-28T16:36:00;6.27;;;3.37;;
8652;SDS011;4364;52.426;9.424;2023-02-28T16:38:27;4.60;;;2.53;;
8652;SDS011;4364;52.426;9.424;2023-02-28T16:40:55;5.33;;;2.77;;
8652;SDS011;4364;52.426;9.424;2023-02-28T16:43:26;4.17;;;3.27;;
8652;SDS011;4364;52.426;9.424;2023-02-28T16:45:54;8.47;;;4.27;;
8652;SDS011;4364;52.426;9.424;2023-02-28T16:48:25;6.97;;;5.10;;
8652;SDS011;4364;52.426;9.424;2023-02-28T16:50:52;6.43;;;4.27;;
8652;SDS011;4364;52.426;9.424;2023-02-28T16:53:18;6.43;;;3.70;;
8652;SDS011;4364;52.426;9.424;2023-02-28T16:55:45;5.80;;;3.80;;
8652;SDS011;4364;52.426;9.424;2023-02-28T16:58:13;5.53;;;3.83;;
8652;SDS011;4364;52.426;9.424;2023-02-28T17:00:42;4.73;;;3.37;;
8652;SDS011;4364;52.426;9.424;2023-02-28T17:03:18;4.33;;;3.47;;
8652;SDS011;4364;52.426;9.424;2023-02-28T17:05:58;5.37;;;3.67;;
8652;SDS011;4364;52.426;9.424;2023-02-28T17:08:26;7.30;;;3.70;;
8652;SDS011;4364;52.426;9.424;2023-02-28T17:10:54;5.37;;;3.40;;
8652;SDS011;4364;52.426;9.424;2023-02-28T17:13:28;4.83;;;3.33;;
8652;SDS011;4364;52.426;9.424;2023-02-28T17:15:55;5.20;;;3.60;;
8652;SDS011;4364;52.426;9.424;2023-02-28T17:18:22;5.83;;;4.00;;
8652;SDS011;4364;52.426;9.424;2023-02-28T17:20:49;6.37;;;3.90;;
8652;SDS011;4364;52.426;9.424;2023-02-28T17:23:15;7.87;;;4.33;;
8652;SDS011;4364;52.426;9.424;2023-02-28T17:25:42;6.50;;;4.07;;
8652;SDS011;4364;52.426;9.424;2023-02-28T17:28:22;7.43;;;4.10;;
8652;SDS011;4364;52.426;9.424;2023-02-28T17:30:50;10.07;;;5.60;;
8652;SDS011;4364;52.426;9.424;2023-02-28T17:33:17;10.87;;;5.50;;
8652;SDS011;4364;52.426;9.424;2023-02-28T17:35:44;8.43;;;5.47;;
8652;SDS011;4364;52.426;9.424;2023-02-28T17:38:17;9.50;;;5.90;;
8652;SDS011;4364;52.426;9.424;2023-02-28T17:40:45;9.00;;;6.20;;
8652;SDS011;4364;52.426;9.424;2023-02-28T17:43:12;9.87;;;6.00;;
8652;SDS011;4364;52.426;9.424;2023-02-28T17:45:39;10.17;;;6.37;;